Time;durP1;ratioP1;P1;durP2;ratioP2;P2;SDS_P1;SDS_P2;PMS_P1;PMS_P2;Temp;Humidity;BMP_temperature;BMP_pressure;BME280_temperature;BME280_humidity;BME280_pressure;Samples;Min_cycle;Max_cycle;Signal;HPM_P1;HPM_P2
2023/03/12 08:10:30;;;;;;;0.50;0.50;;;;;;;;;;7399262;19;20136;-90
2023/03/12 08:12:57;;;;;;;0.40;0.40;;;;;;;;;;7397441;19;20254;-91
2023/03/12 08:15:24;;;;;;;0.30;0.30;;;;;;;;;;7394063;19;20664;-91
2023/03/12 08:17:52;;;;;;;0.57;0.57;;;;;;;;;;7395362;19;20136;-93
2023/03/12 08:20:21;;;;;;;0.47;0.47;;;;;;;;;;7396467;19;20129;-90
2023/03/12 08:22:47;;;;;;;0.30;0.30;;;;;;;;;;7396311;19;20141;-93
2023/03/12 08:25:14;;;;;;;0.77;0.70;;;;;;;;;;7394120;19;20607;-93
2023/03/12 08:27:43;;;;;;;0.40;0.40;;;;;;;;;;7393803;19;20133;-92
2023/03/12 08:30:10;;;;;;;0.30;0.30;;;;;;;;;;7393479;19;20140;-92
2023/03/12 08:32:37;;;;;;;0.30;0.30;;;;;;;;;;7391275;19;20600;-92
2023/03/12 08:35:04;;;;;;;0.57;0.57;;;;;;;;;;7392757;19;20508;-91
2023/03/12 08:37:31;;;;;;;0.60;0.60;;;;;;;;;;7393427;19;20133;-91
2023/03/12 08:39:58;;;;;;;0.90;0.90;;;;;;;;;;7393104;19;20141;-93
2023/03/12 08:42:25;;;;;;;1.40;0.67;;;;;;;;;;7394358;19;20232;-92
2023/03/12 08:44:51;;;;;;;0.40;0.40;;;;;;;;;;7393341;19;20168;-92
2023/03/12 08:47:18;;;;;;;0.40;0.40;;;;;;;;;;7393275;19;20156;-91
2023/03/12 08:49:45;;;;;;;0.70;0.70;;;;;;;;;;7393690;19;20505;-91
2023/03/12 08:52:11;;;;;;;0.57;0.57;;;;;;;;;;7391349;19;20168;-92
2023/03/12 08:54:42;;;;;;;0.50;0.50;;;;;;;;;;7392873;19;20153;-91
2023/03/12 08:57:09;;;;;;;0.40;0.40;;;;;;;;;;7392733;19;20144;-91
2023/03/12 08:59:35;;;;;;;0.40;0.40;;;;;;;;;;7392565;19;20129;-91
2023/03/12 09:02:02;;;;;;;0.33;0.33;;;;;;;;;;7392639;19;20133;-91
2023/03/12 09:04:29;;;;;;;0.30;0.30;;;;;;;;;;7391858;19;20145;-90
2023/03/12 09:06:55;;;;;;;0.73;0.50;;;;;;;;;;7393336;19;20585;-91
2023/03/12 09:09:22;;;;;;;0.30;0.30;;;;;;;;;;7392305;19;20129;-92
2023/03/12 09:11:48;;;;;;;0.30;0.30;;;;;;;;;;7389435;19;20125;-91
2023/03/12 09:14:15;;;;;;;0.70;0.70;;;;;;;;;;7387554;19;20137;-93
2023/03/12 09:17:05;;;;;;;0.47;0.47;;;;;;;;;;7392027;19;20161;-92
2023/03/12 09:19:33;;;;;;;0.30;0.30;;;;;;;;;;7391477;19;20140;-93
2023/03/12 09:22:04;;;;;;;0.40;0.40;;;;;;;;;;7392431;19;20120;-90
2023/03/12 11:30:35;;;;;;;0.50;0.50;;;;;;;;;;7382858;19;20543;-92
2023/03/12 11:33:03;;;;;;;0.43;0.43;;;;;;;;;;7381618;19;20136;-89
2023/03/12 11:35:43;;;;;;;0.33;0.33;;;;;;;;;;7382777;19;20168;-90
2023/03/12 11:38:18;;;;;;;0.30;0.30;;;;;;;;;;7382307;19;20680;-90
2023/03/12 11:40:54;;;;;;;0.73;0.57;;;;;;;;;;7387711;19;20140;-89
2023/03/12 11:43:51;;;;;;;0.30;0.30;;;;;;;;;;7403508;19;20132;-87
2023/03/12 11:46:36;;;;;;;0.77;0.77;;;;;;;;;;7398794;19;20149;-87
2023/03/12 11:49:22;;;;;;;0.30;0.30;;;;;;;;;;7403439;19;20141;-87
2023/03/12 11:52:14;;;;;;;0.30;0.30;;;;;;;;;;7401540;19;20157;-87
2023/03/12 11:54:44;;;;;;;0.40;0.40;;;;;;;;;;7397890;19;20152;-88
2023/03/12 11:57:21;;;;;;;0.50;0.50;;;;;;;;;;7399569;19;20150;-87
2023/03/12 11:59:54;;;;;;;0.55;0.55;;;;;;;;;;7416396;19;20352;-88
2023/03/12 12:02:45;;;;;;;0.30;0.30;;;;;;;;;;7427068;19;20129;-88
2023/03/12 12:05:18;;;;;;;0.50;0.50;;;;;;;;;;7423993;19;20933;-88
2023/03/12 12:08:03;;;;;;;0.73;0.73;;;;;;;;;;7421624;19;20125;-89
2023/03/12 12:10:48;;;;;;;0.47;0.47;;;;;;;;;;7423372;19;20161;-88
2023/03/12 12:13:27;;;;;;;1.10;0.68;;;;;;;;;;7387084;19;20152;-88
2023/03/12 12:16:14;;;;;;;0.30;0.30;;;;;;;;;;7382778;19;20198;-87
2023/03/12 12:18:44;;;;;;;0.45;0.45;;;;;;;;;;7385139;19;20125;-89
2023/03/12 12:21:20;;;;;;;0.50;0.50;;;;;;;;;;7390968;19;20161;-88
2023/03/12 12:23:50;;;;;;;0.43;0.40;;;;;;;;;;7388220;19;20132;-89
2023/03/12 12:26:45;;;;;;;0.30;0.30;;;;;;;;;;7384859;19;20149;-89
2023/03/12 12:33:14;;;;;;;0.43;0.43;;;;;;;;;;7399359;19;20144;-88
2023/03/12 12:35:42;;;;;;;0.30;0.30;;;;;;;;;;7397868;19;20162;-89
2023/03/12 12:38:13;;;;;;;0.30;0.30;;;;;;;;;;7400183;19;20128;-89
2023/03/12 12:41:09;;;;;;;0.30;0.30;;;;;;;;;;7399809;19;20250;-87
2023/03/12 12:43:38;;;;;;;0.77;0.77;;;;;;;;;;7397124;19;20140;-88
2023/03/12 12:46:08;;;;;;;0.75;0.73;;;;;;;;;;7399049;19;20160;-87
2023/03/12 12:48:42;;;;;;;0.20;0.20;;;;;;;;;;7398738;19;20246;-86
2023/03/12 12:51:09;;;;;;;0.50;0.50;;;;;;;;;;7393310;19;20121;-86
2023/03/12 12:53:53;;;;;;;0.70;0.70;;;;;;;;;;7395707;19;20484;-87
2023/03/12 12:56:49;;;;;;;0.30;0.30;;;;;;;;;;7394902;19;20648;-85
2023/03/12 12:59:30;;;;;;;0.63;0.43;;;;;;;;;;7418403;19;20136;-86
2023/03/12 13:01:57;;;;;;;0.35;0.35;;;;;;;;;;7422195;19;20144;-85
2023/03/12 13:04:27;;;;;;;0.30;0.30;;;;;;;;;;7423909;19;20169;-84
2023/03/12 13:07:23;;;;;;;0.45;0.45;;;;;;;;;;7411608;19;20133;-86
2023/03/12 13:10:00;;;;;;;0.47;0.47;;;;;;;;;;7394903;19;20145;-88
2023/03/12 13:12:55;;;;;;;0.40;0.40;;;;;;;;;;7392011;19;20125;-86
2023/03/12 13:15:31;;;;;;;0.50;0.50;;;;;;;;;;7393242;19;20133;-87
2023/03/12 13:17:57;;;;;;;0.60;0.47;;;;;;;;;;7389916;19;20133;-86
2023/03/12 13:20:45;;;;;;;0.45;0.45;;;;;;;;;;7393519;19;20133;-86
2023/03/12 13:23:22;;;;;;;1.88;0.85;;;;;;;;;;7393277;19;20129;-86
2023/03/12 13:25:53;;;;;;;0.75;0.65;;;;;;;;;;7389034;19;20489;-88
2023/03/12 13:28:33;;;;;;;0.55;0.55;;;;;;;;;;7386672;19;20148;-86
2023/03/12 13:31:28;;;;;;;0.65;0.57;;;;;;;;;;7381406;19;20543;-86
2023/03/12 13:34:15;;;;;;;0.32;0.32;;;;;;;;;;7388727;19;20132;-87
2023/03/12 13:36:43;;;;;;;1.13;1.02;;;;;;;;;;7390155;19;20129;-87
2023/03/12 13:39:21;;;;;;;0.40;0.40;;;;;;;;;;7389211;19;20137;-87
2023/03/12 13:41:51;;;;;;;0.30;0.30;;;;;;;;;;7390680;19;20136;-85
2023/03/12 13:44:27;;;;;;;0.40;0.40;;;;;;;;;;7391785;19;20512;-87
2023/03/12 13:47:02;;;;;;;0.30;0.30;;;;;;;;;;7388637;19;20128;-86
2023/03/12 13:49:53;;;;;;;0.50;0.50;;;;;;;;;;7388871;19;20168;-88
2023/03/12 13:52:29;;;;;;;7.00;0.60;;;;;;;;;;7388304;19;20637;-87
2023/03/12 13:55:01;;;;;;;0.30;0.30;;;;;;;;;;7390586;19;20168;-85
2023/03/12 13:57:35;;;;;;;0.30;0.30;;;;;;;;;;7388514;19;20129;-85
2023/03/12 14:00:11;;;;;;;0.30;0.30;;;;;;;;;;7386024;19;20576;-89
2023/03/12 14:02:44;;;;;;;0.30;0.30;;;;;;;;;;7386396;19;20130;-89
2023/03/12 14:05:12;;;;;;;0.70;0.70;;;;;;;;;;7384343;19;20509;-88
2023/03/12 14:08:09;;;;;;;0.30;0.30;;;;;;;;;;7387975;19;20133;-88
2023/03/12 14:10:58;;;;;;;0.30;0.30;;;;;;;;;;7387908;19;20129;-88
2023/03/12 14:13:34;;;;;;;0.35;0.35;;;;;;;;;;7391316;19;20133;-88
2023/03/12 15:26:27;;;;;;;0.32;0.32;;;;;;;;;;7403746;19;20137;-89
2023/03/12 15:28:56;;;;;;;0.50;0.50;;;;;;;;;;7397682;19;20140;-89
2023/03/12 15:31:23;;;;;;;0.30;0.30;;;;;;;;;;7400337;19;20148;-90
2023/03/12 15:34:04;;;;;;;0.30;0.30;;;;;;;;;;7394198;19;20144;-90
2023/03/12 15:36:32;;;;;;;0.38;0.38;;;;;;;;;;7391208;19;20160;-91
2023/03/12 15:39:04;;;;;;;0.30;0.30;;;;;;;;;;7393540;19;20161;-90
2023/03/12 15:41:41;;;;;;;0.30;0.30;;;;;;;;;;7394823;19;20129;-91
2023/03/12 15:44:17;;;;;;;0.30;0.30;;;;;;;;;;7394677;19;20143;-92
2023/03/12 15:46:48;;;;;;;0.40;0.40;;;;;;;;;;7392501;19;20129;-91
2023/03/12 15:49:25;;;;;;;0.20;0.20;;;;;;;;;;7394132;19;20125;-91
2023/03/12 15:52:03;;;;;;;0.85;0.65;;;;;;;;;;7395217;19;20139;-92
2023/03/12 15:54:30;;;;;;;0.30;0.30;;;;;;;;;;7391421;19;20145;-91
2023/03/12 15:57:17;;;;;;;0.38;0.38;;;;;;;;;;7392750;19;20137;-91
2023/03/12 15:59:49;;;;;;;0.30;0.30;;;;;;;;;;7409887;19;20153;-91
2023/03/12 16:02:34;;;;;;;0.30;0.30;;;;;;;;;;7424896;19;20137;-93
2023/03/12 16:05:01;;;;;;;0.30;0.30;;;;;;;;;;7426211;19;20153;-93
2023/03/12 16:07:27;;;;;;;0.20;0.20;;;;;;;;;;7427720;19;20133;-93
2023/03/12 16:09:54;;;;;;;0.30;0.30;;;;;;;;;;7428816;19;20148;-92
2023/03/12 16:12:20;;;;;;;0.20;0.20;;;;;;;;;;7425553;19;20128;-92
2023/03/12 16:14:47;;;;;;;0.53;0.53;;;;;;;;;;7423976;19;20181;-93
2023/03/12 16:17:21;;;;;;;1.90;0.33;;;;;;;;;;7427466;19;20133;-93
2023/03/12 16:19:50;;;;;;;0.30;0.30;;;;;;;;;;7425887;19;20121;-93
2023/03/12 16:22:19;;;;;;;0.40;0.40;;;;;;;;;;7427059;19;20177;-93
2023/03/12 16:24:45;;;;;;;0.27;0.27;;;;;;;;;;7403407;19;20145;-93
2023/03/12 16:27:14;;;;;;;0.40;0.40;;;;;;;;;;7398808;19;20352;-93
2023/03/12 16:29:46;;;;;;;0.20;0.20;;;;;;;;;;7397301;19;20129;-92
2023/03/12 16:32:20;;;;;;;0.50;0.40;;;;;;;;;;7396679;19;20137;-92
2023/03/12 16:34:47;;;;;;;0.33;0.33;;;;;;;;;;7390040;19;20132;-92
2023/03/12 16:37:13;;;;;;;0.30;0.30;;;;;;;;;;7395698;19;20143;-92
2023/03/12 16:39:43;;;;;;;0.30;0.30;;;;;;;;;;7397593;19;20128;-92
2023/03/12 16:42:15;;;;;;;0.30;0.30;;;;;;;;;;7394585;19;20137;-91
2023/03/12 16:44:44;;;;;;;0.30;0.30;;;;;;;;;;7393764;19;20157;-93
2023/03/12 16:47:12;;;;;;;0.40;0.40;;;;;;;;;;7396747;19;20137;-93
2023/03/12 16:49:38;;;;;;;0.83;0.80;;;;;;;;;;7393153;19;20740;-92
2023/03/12 16:52:31;;;;;;;0.30;0.30;;;;;;;;;;7394638;19;20129;-91
2023/03/12 16:54:58;;;;;;;0.67;0.67;;;;;;;;;;7392813;19;20197;-93
2023/03/12 16:57:34;;;;;;;0.30;0.30;;;;;;;;;;7396214;19;20137;-92
2023/03/12 17:00:02;;;;;;;0.30;0.30;;;;;;;;;;7395656;19;20136;-92
2023/03/12 17:02:29;;;;;;;0.30;0.30;;;;;;;;;;7396518;19;20136;-92
2023/03/12 17:04:55;;;;;;;0.20;0.20;;;;;;;;;;7387139;19;20161;-92
2023/03/12 17:07:22;;;;;;;0.80;0.80;;;;;;;;;;7396281;19;20133;-93
2023/03/12 17:09:48;;;;;;;0.40;0.40;;;;;;;;;;7390458;19;20609;-93
2023/03/12 17:12:29;;;;;;;0.30;0.30;;;;;;;;;;7391176;19;20156;-91
2023/03/12 17:14:57;;;;;;;0.33;0.33;;;;;;;;;;7386110;19;20157;-93
2023/03/12 17:17:24;;;;;;;0.30;0.30;;;;;;;;;;7388010;19;20608;-92
2023/03/12 17:19:50;;;;;;;0.50;0.50;;;;;;;;;;7386611;19;20129;-92
2023/03/12 17:39:07;;;;;;;0.30;0.30;;;;;;;;;;7393997;19;20551;-88
2023/03/12 17:42:59;;;;;;;0.77;0.77;;;;;;;;;;7391445;19;20152;-89
2023/03/12 17:45:49;;;;;;;0.30;0.30;;;;;;;;;;7392301;19;20161;-88
2023/03/12 17:48:16;;;;;;;0.30;0.30;;;;;;;;;;7390165;19;20137;-89
2023/03/12 17:50:43;;;;;;;0.63;0.50;;;;;;;;;;7379680;19;20133;-89
2023/03/12 17:53:10;;;;;;;0.30;0.30;;;;;;;;;;7375983;19;20177;-86
2023/03/12 17:55:40;;;;;;;1.03;0.40;;;;;;;;;;7389764;19;20140;-87
2023/03/12 17:58:48;;;;;;;0.30;0.30;;;;;;;;;;7392429;19;20250;-89
2023/03/12 18:01:14;;;;;;;0.30;0.30;;;;;;;;;;7398758;19;20129;-87
2023/03/12 18:03:42;;;;;;;0.30;0.30;;;;;;;;;;7402559;19;20137;-87
2023/03/12 18:06:10;;;;;;;0.30;0.30;;;;;;;;;;7403736;19;20514;-87
2023/03/12 18:08:36;;;;;;;0.30;0.30;;;;;;;;;;7402541;19;20469;-90
2023/03/12 18:11:03;;;;;;;0.37;0.37;;;;;;;;;;7403358;19;20140;-87
2023/03/12 18:13:30;;;;;;;0.30;0.30;;;;;;;;;;7401163;19;20145;-87
2023/03/12 18:15:57;;;;;;;0.50;0.47;;;;;;;;;;7400781;19;20129;-87
2023/03/12 18:18:33;;;;;;;0.20;0.20;;;;;;;;;;7397088;19;20141;-88
2023/03/12 18:35:52;;;;;;;0.27;0.27;;;;;;;;;;7388168;19;20196;-90
2023/03/12 18:38:28;;;;;;;0.43;0.43;;;;;;;;;;7387701;19;20704;-90
2023/03/12 18:41:05;;;;;;;0.57;0.57;;;;;;;;;;7389712;19;20644;-92
2023/03/12 18:43:31;;;;;;;0.30;0.30;;;;;;;;;;7384320;19;20211;-90
2023/03/12 18:45:58;;;;;;;0.30;0.30;;;;;;;;;;7385126;19;20200;-90
2023/03/12 18:48:25;;;;;;;0.30;0.30;;;;;;;;;;7385755;19;20192;-89
2023/03/12 18:50:52;;;;;;;0.30;0.30;;;;;;;;;;7386818;19;20703;-91
2023/03/12 18:53:18;;;;;;;1.10;1.03;;;;;;;;;;7382014;19;20184;-90
2023/03/12 18:55:52;;;;;;;0.33;0.33;;;;;;;;;;7384860;19;20192;-88
2023/03/12 18:58:20;;;;;;;0.40;0.40;;;;;;;;;;7384937;19;20199;-89
2023/03/12 19:00:46;;;;;;;0.30;0.30;;;;;;;;;;7388116;19;20192;-88
2023/03/12 19:03:14;;;;;;;0.50;0.50;;;;;;;;;;7384866;19;20217;-90
2023/03/12 19:05:46;;;;;;;0.30;0.30;;;;;;;;;;7316163;19;20697;-89
2023/03/12 19:08:13;;;;;;;0.30;0.30;;;;;;;;;;7381625;19;20229;-89
2023/03/12 19:10:41;;;;;;;0.30;0.30;;;;;;;;;;7385202;19;20609;-89
2023/03/12 19:13:10;;;;;;;0.30;0.30;;;;;;;;;;7386226;19;20708;-87
2023/03/12 19:15:38;;;;;;;0.80;0.80;;;;;;;;;;7387360;19;20188;-89
2023/03/12 19:18:04;;;;;;;0.30;0.30;;;;;;;;;;7388334;19;20196;-90
2023/03/12 19:30:45;;;;;;;0.30;0.30;;;;;;;;;;7357243;19;20207;-89
2023/03/12 19:33:21;;;;;;;0.23;0.23;;;;;;;;;;7357500;19;20613;-91
2023/03/12 19:36:04;;;;;;;0.40;0.40;;;;;;;;;;7358801;19;20188;-89
2023/03/12 19:42:08;;;;;;;0.30;0.30;;;;;;;;;;7333940;19;20196;-90
2023/03/12 19:44:41;;;;;;;1.13;0.70;;;;;;;;;;7377263;19;20268;-91
2023/03/12 19:47:17;;;;;;;0.40;0.40;;;;;;;;;;7378885;19;20184;-88
2023/03/12 19:50:09;;;;;;;0.30;0.30;;;;;;;;;;7357967;19;20664;-87
2023/03/12 19:52:36;;;;;;;0.40;0.40;;;;;;;;;;7377669;19;20615;-89
2023/03/12 19:59:06;;;;;;;0.30;0.30;;;;;;;;;;7379089;19;20183;-90
2023/03/12 20:02:08;;;;;;;0.20;0.20;;;;;;;;;;7363566;19;20661;-91
2023/03/12 20:05:40;;;;;;;0.60;0.60;;;;;;;;;;7378398;19;20195;-91
2023/03/12 20:08:55;;;;;;;0.30;0.30;;;;;;;;;;7381474;19;20153;-91
2023/03/12 20:25:12;;;;;;;0.20;0.20;;;;;;;;;;7364165;19;20196;-91
2023/03/12 20:28:35;;;;;;;0.50;0.50;;;;;;;;;;7429580;19;20177;-92
2023/03/12 20:36:06;;;;;;;0.23;0.23;;;;;;;;;;7325161;19;20226;-90
2023/03/12 20:38:49;;;;;;;0.20;0.20;;;;;;;;;;7327385;19;20248;-91
2023/03/12 20:41:54;;;;;;;1.63;0.63;;;;;;;;;;7368769;19;20263;-90
2023/03/12 20:44:23;;;;;;;0.30;0.30;;;;;;;;;;7391732;19;20188;-90
2023/03/12 20:47:42;;;;;;;0.30;0.30;;;;;;;;;;7370049;19;20600;-90
2023/03/12 20:50:36;;;;;;;0.30;0.30;;;;;;;;;;7386538;19;20228;-91
2023/03/12 20:53:56;;;;;;;0.40;0.40;;;;;;;;;;7345906;19;20188;-90
2023/03/12 20:57:25;;;;;;;;;;;;;;;;;;;;;
2023/03/12 21:08:07;;;;;;;0.40;0.40;;;;;;;;;;7374367;19;20180;-91
2023/03/12 21:11:30;;;;;;;0.37;0.37;;;;;;;;;;7386828;19;20152;-92
2023/03/12 21:14:01;;;;;;;0.20;0.20;;;;;;;;;;7345478;19;20282;-92
2023/03/12 21:16:28;;;;;;;0.47;0.47;;;;;;;;;;7383319;19;20192;-92
2023/03/12 21:18:55;;;;;;;0.37;0.37;;;;;;;;;;7383752;19;20185;-91
2023/03/12 21:21:22;;;;;;;0.30;0.30;;;;;;;;;;7378755;19;20200;-91
2023/03/12 21:23:49;;;;;;;0.20;0.20;;;;;;;;;;7384672;19;20715;-92
2023/03/12 21:26:19;;;;;;;0.30;0.30;;;;;;;;;;7340860;19;20192;-91
2023/03/12 21:29:00;;;;;;;0.30;0.30;;;;;;;;;;7365582;19;20188;-92
2023/03/12 21:31:49;;;;;;;0.20;0.20;;;;;;;;;;7362319;19;20196;-91
2023/03/12 21:34:32;;;;;;;0.20;0.20;;;;;;;;;;7366209;19;20251;-91
2023/03/12 21:36:59;;;;;;;0.30;0.30;;;;;;;;;;7388537;19;20187;-91
2023/03/12 21:39:28;;;;;;;0.30;0.30;;;;;;;;;;7366250;19;20184;-90
2023/03/12 21:41:55;;;;;;;0.40;0.40;;;;;;;;;;7387383;19;20196;-92
2023/03/12 21:44:22;;;;;;;0.40;0.40;;;;;;;;;;7387675;19;20575;-91
2023/03/12 21:46:48;;;;;;;0.27;0.27;;;;;;;;;;7390714;19;20192;-91
2023/03/12 21:49:16;;;;;;;0.20;0.20;;;;;;;;;;7396559;19;20192;-92
2023/03/12 21:51:43;;;;;;;0.30;0.30;;;;;;;;;;7396723;19;20555;-91
2023/03/12 21:54:10;;;;;;;0.30;0.30;;;;;;;;;;7394129;19;20196;-92
2023/03/12 21:56:37;;;;;;;0.30;0.30;;;;;;;;;;7395271;19;20185;-91
2023/03/12 21:59:06;;;;;;;0.20;0.20;;;;;;;;;;7394198;19;20188;-92
2023/03/12 22:01:35;;;;;;;0.20;0.20;;;;;;;;;;7391984;19;20214;-92
2023/03/12 22:04:02;;;;;;;0.40;0.40;;;;;;;;;;7391789;19;20198;-92
2023/03/12 22:06:28;;;;;;;0.30;0.30;;;;;;;;;;7394615;19;20299;-92
2023/03/12 22:09:01;;;;;;;0.67;0.40;;;;;;;;;;7393022;19;20538;-92
2023/03/12 22:11:28;;;;;;;0.40;0.40;;;;;;;;;;7387280;19;20180;-91
2023/03/12 22:14:03;;;;;;;0.80;0.80;;;;;;;;;;7391446;19;20188;-91
2023/03/12 22:16:30;;;;;;;0.30;0.30;;;;;;;;;;7392637;19;20189;-92
2023/03/12 22:18:56;;;;;;;0.20;0.20;;;;;;;;;;7391923;19;20202;-92
2023/03/12 22:21:23;;;;;;;0.37;0.37;;;;;;;;;;7391532;19;20200;-92
2023/03/12 22:24:00;;;;;;;0.27;0.27;;;;;;;;;;7386544;19;20209;-90
2023/03/12 22:26:39;;;;;;;0.30;0.30;;;;;;;;;;7364828;19;20200;-91
2023/03/12 22:29:06;;;;;;;0.30;0.30;;;;;;;;;;7386430;19;20196;-92
2023/03/12 22:31:51;;;;;;;0.30;0.30;;;;;;;;;;7364265;19;20196;-90
2023/03/12 22:34:49;;;;;;;0.30;0.30;;;;;;;;;;7366080;19;20236;-91
2023/03/12 22:37:25;;;;;;;0.57;0.57;;;;;;;;;;7386058;19;20255;-90
2023/03/12 22:40:05;;;;;;;0.20;0.20;;;;;;;;;;7386710;19;20203;-91
2023/03/12 22:42:33;;;;;;;0.33;0.33;;;;;;;;;;7388226;19;20210;-87
2023/03/12 22:45:29;;;;;;;0.30;0.30;;;;;;;;;;7396163;19;20204;-88
2023/03/12 22:48:04;;;;;;;0.30;0.30;;;;;;;;;;7346212;19;20259;-89
2023/03/12 22:51:06;;;;;;;0.30;0.30;;;;;;;;;;7368409;19;20212;-88
2023/03/12 22:53:51;;;;;;;0.23;0.23;;;;;;;;;;7378068;19;20234;-86
2023/03/12 22:56:19;;;;;;;0.30;0.30;;;;;;;;;;7395707;19;20196;-87
2023/03/12 22:58:46;;;;;;;0.30;0.30;;;;;;;;;;7399506;19;20184;-87
2023/03/12 23:01:14;;;;;;;0.67;0.67;;;;;;;;;;7398480;19;20192;-87
2023/03/12 23:03:42;;;;;;;0.20;0.20;;;;;;;;;;7398611;19;20648;-86
2023/03/12 23:06:11;;;;;;;0.30;0.30;;;;;;;;;;7397487;19;20184;-86
2023/03/12 23:08:38;;;;;;;0.50;0.50;;;;;;;;;;7398042;19;20191;-86
2023/03/12 23:11:05;;;;;;;0.30;0.30;;;;;;;;;;7399041;19;20212;-88
2023/03/12 23:13:34;;;;;;;0.30;0.30;;;;;;;;;;7398129;19;20216;-86
2023/03/12 23:16:04;;;;;;;0.77;0.50;;;;;;;;;;7397859;19;20613;-86
2023/03/12 23:18:32;;;;;;;0.30;0.30;;;;;;;;;;7398548;19;20184;-87
2023/03/12 23:21:00;;;;;;;0.30;0.30;;;;;;;;;;7397694;19;20192;-86
2023/03/12 23:23:28;;;;;;;0.30;0.30;;;;;;;;;;7394882;19;20656;-86
2023/03/12 23:25:56;;;;;;;0.30;0.30;;;;;;;;;;7399077;19;20188;-87
2023/03/12 23:28:23;;;;;;;0.20;0.20;;;;;;;;;;7397802;19;20199;-87
2023/03/12 23:31:04;;;;;;;0.30;0.30;;;;;;;;;;7413648;19;20189;-88
2023/03/12 23:33:31;;;;;;;0.30;0.30;;;;;;;;;;7415759;19;20188;-89
2023/03/12 23:36:03;;;;;;;0.20;0.20;;;;;;;;;;7421533;19;20653;-87
2023/03/12 23:38:30;;;;;;;0.30;0.30;;;;;;;;;;7404341;19;20203;-87
2023/03/12 23:40:59;;;;;;;0.30;0.30;;;;;;;;;;7401146;19;20213;-87
2023/03/12 23:43:26;;;;;;;0.30;0.30;;;;;;;;;;7403661;19;21112;-91
2023/03/12 23:46:01;;;;;;;0.20;0.20;;;;;;;;;;7405669;19;20195;-86
2023/03/12 23:48:28;;;;;;;0.30;0.30;;;;;;;;;;7405355;19;20180;-86
2023/03/12 23:51:06;;;;;;;0.30;0.30;;;;;;;;;;7402743;19;20197;-86
2023/03/12 23:53:33;;;;;;;0.30;0.30;;;;;;;;;;7402287;19;20187;-86
2023/03/12 23:56:01;;;;;;;0.37;0.37;;;;;;;;;;7403644;19;20208;-88
2023/03/12 23:58:43;;;;;;;0.30;0.30;;;;;;;;;;7400829;19;20664;-86
